»·PEaware :: DAL2295 KSFO-KLAX

DAL2295 :: KSFO-KLAX

FLIGHT INFORMATION

Flight Status: Arrived
Operator:
Delta Air Lines
More flights by this operator :: More flights under this callsign
Pilot: Phil N. (682)
Aircraft: BOEING 737-800
(B738)
More flights by this aircraft type
Origin: KSFO San Francisco Intl
United States
Destination: KLAX Los Angeles Intl
United States
More flights between these airports :: More routes between these airports
Route: WESLA4 EBAYE BURGL IRNMN2
File this flight plan on PilotEdge
Remarks: PBN / A1B1C1D1S1S2 DOF / 181202 REG / N806SB EET / KZAK0018 KZLA0022 OPR / DAL PER / C RMK / TCAS SIMBRIEF
Altitude:
(Current/Filed)
35,000ft
Speed:
(Current/Filed)
433kts
Departed: 02-Dec-18 11:42 AM
Arrived: 02-Dec-18 12:36 PM
Distance/Time
Traveled:
292nm/0:53
Distance/Time
To Go:
Arrived

Flight Plot

Page will automatically refresh every two minutes.

Flight plan parsing failed; only flown route is shown


Map Options




Map Legend


Flown Route
Filed Route
Departure Airport
Arrival Airport
Navaid (VOR, NDB)
Fix

Horizontal Profiles

Position Reports

Time Latitude Longitude Heading Altitude Ground
Speed
02-Dec-18 11:11 37.614698 -122.381631 300 14ft 0kts
02-Dec-18 11:12 37.614698 -122.381631 300 14ft 0kts
02-Dec-18 11:13 37.614698 -122.381631 300 14ft 0kts
02-Dec-18 11:14 37.614698 -122.381631 300 14ft 0kts
02-Dec-18 11:15 37.614698 -122.381631 300 14ft 0kts
02-Dec-18 11:16 37.614698 -122.381631 300 14ft 0kts
02-Dec-18 11:17 37.614698 -122.381631 300 14ft 0kts
02-Dec-18 11:18 37.614698 -122.381631 299 14ft 0kts
02-Dec-18 11:26 37.614698 -122.381631 300 14ft 0kts
02-Dec-18 11:27 37.614698 -122.381631 300 14ft 0kts
02-Dec-18 11:28 37.614698 -122.381631 300 14ft 0kts
02-Dec-18 11:29 37.614698 -122.381631 300 14ft 0kts
02-Dec-18 11:30 37.614698 -122.381631 300 14ft 0kts
02-Dec-18 11:31 37.614698 -122.381631 300 14ft 0kts
02-Dec-18 11:32 37.614464 -122.381113 299 14ft 0kts
02-Dec-18 11:33 37.614464 -122.381113 299 14ft 0kts
02-Dec-18 11:34 37.614848 -122.381413 31 14ft 0kts
02-Dec-18 11:35 37.614848 -122.381413 31 14ft 0kts
02-Dec-18 11:36 37.614848 -122.381413 31 14ft 0kts
02-Dec-18 11:37 37.614866 -122.381399 32 14ft 2kts
02-Dec-18 11:38 37.612994 -122.378301 116 14ft 19kts
02-Dec-18 11:39 37.615476 -122.371152 108 14ft 26kts
02-Dec-18 11:40 37.611187 -122.361787 117 14ft 33kts
02-Dec-18 11:41 37.610962 -122.359112 34 12ft 0kts
02-Dec-18 11:42 37.610965 -122.359110 34 12ft 0kts
02-Dec-18 11:43 37.610965 -122.359110 34 12ft 0kts
02-Dec-18 11:44 37.611703 -122.358653 347 12ft 12kts
02-Dec-18 11:45 37.623633 -122.386620 300 647ft 171kts
02-Dec-18 11:46 37.648309 -122.441766 302 3198ft 200kts
02-Dec-18 11:47 37.633300 -122.499748 189 5401ft 234kts
02-Dec-18 11:48 37.559774 -122.485308 169 7750ft 294kts
02-Dec-18 11:49 37.480523 -122.453357 143 10239ft 317kts
02-Dec-18 11:50 37.420108 -122.371997 129 12212ft 331kts
02-Dec-18 11:51 37.353113 -122.280659 130 13804ft 374kts
02-Dec-18 11:52 37.281798 -122.184734 130 16235ft 381kts
02-Dec-18 11:53 37.205035 -122.088171 135 18287ft 412kts
02-Dec-18 11:54 37.124640 -121.980559 131 20420ft 435kts
02-Dec-18 11:55 37.040653 -121.867757 132 22559ft 453kts
02-Dec-18 11:56 36.953271 -121.750917 134 24593ft 468kts
02-Dec-18 11:57 36.863344 -121.631220 134 26387ft 483kts
02-Dec-18 11:58 36.770204 -121.507736 135 28027ft 497kts
02-Dec-18 11:59 36.674611 -121.381452 136 29699ft 507kts
02-Dec-18 12:00 36.578943 -121.255359 137 31151ft 517kts
02-Dec-18 12:01 36.480314 -121.125862 138 32752ft 519kts
02-Dec-18 12:02 36.382798 -120.992469 134 34054ft 529kts
02-Dec-18 12:03 36.286588 -120.853943 135 35204ft 536kts
02-Dec-18 12:04 36.186577 -120.711133 134 35219ft 560kts
02-Dec-18 12:05 36.084728 -120.566159 134 35202ft 558kts
02-Dec-18 12:06 35.982929 -120.421947 135 35203ft 559kts
02-Dec-18 12:07 35.881827 -120.280958 140 35179ft 554kts
02-Dec-18 12:08 35.759373 -120.177396 157 35181ft 539kts
02-Dec-18 12:09 35.631393 -120.081615 156 35192ft 540kts
02-Dec-18 12:10 35.503504 -119.985214 156 35183ft 540kts
02-Dec-18 12:11 35.375745 -119.889289 156 35188ft 535kts
02-Dec-18 12:12 35.274805 -119.812354 151 35212ft 515kts
02-Dec-18 12:13 35.141758 -119.686689 149 35181ft 519kts
02-Dec-18 12:14 35.046000 -119.597645 149 34007ft 522kts
02-Dec-18 12:15 34.913154 -119.474514 148 29709ft 509kts
02-Dec-18 12:16 34.824853 -119.395168 149 29043ft 486kts
02-Dec-18 12:17 34.716082 -119.298544 149 25883ft 478kts
02-Dec-18 12:18 34.596596 -119.194660 149 23151ft 432kts
02-Dec-18 12:19 34.514397 -119.132125 163 21001ft 407kts
02-Dec-18 12:20 34.411367 -119.085019 164 18542ft 389kts
02-Dec-18 12:21 34.311645 -119.041578 164 16054ft 377kts
02-Dec-18 12:22 34.214375 -119.001187 164 13572ft 365kts
02-Dec-18 12:23 34.121523 -118.962426 148 11547ft 346kts
02-Dec-18 12:24 34.081433 -118.865288 105 9661ft 324kts
02-Dec-18 12:25 34.056972 -118.770087 104 9457ft 293kts
02-Dec-18 12:26 34.032297 -118.674034 103 9418ft 299kts
02-Dec-18 12:27 34.021084 -118.576846 91 9394ft 287kts
02-Dec-18 12:28 34.011703 -118.475121 92 9134ft 310kts
02-Dec-18 12:29 34.023080 -118.379113 72 7547ft 280kts
02-Dec-18 12:30 34.032664 -118.295825 81 5828ft 242kts
02-Dec-18 12:31 34.038415 -118.217532 81 4038ft 231kts
02-Dec-18 12:32 34.041885 -118.142224 93 2970ft 224kts
02-Dec-18 12:33 33.999398 -118.133146 230 2981ft 188kts
02-Dec-18 12:34 33.974826 -118.185464 263 2974ft 183kts
02-Dec-18 12:35 33.968213 -118.246203 264 2688ft 185kts
02-Dec-18 12:36 33.962348 -118.303716 265 1766ft 160kts
02-Dec-18 12:37 33.957010 -118.354842 269 923ft 140kts
02-Dec-18 12:38 33.952007 -118.402417 267 143ft 144kts
02-Dec-18 12:39 33.948208 -118.421180 234 121ft 22kts
02-Dec-18 12:40 33.947260 -118.422627 232 119ft 17kts
02-Dec-18 12:41 33.945671 -118.423294 79 115ft 14kts
02-Dec-18 12:42 33.946375 -118.423391 316 117ft 0kts

Navigation Log

Ident Type
Flight plan parsing failed, navigation log unavailable